Sable Island, Canada
Current Conditions -  °F | °C
As of 12:03 AM on Friday 28 Nov 2014 (Local Time) from CESA Reporting Station
Light Rain Light Rain  
Wind Chill: 26°   Ceiling: Unl
Heat Index: 37°   Visibility: 8mi
Dew Point: 32°   Wind: 22mph
Humidity: 82%   Direction: 310°NW
Pressure: 29.87"   Gusts: NA
Location:  43.95°N, 59.85°W
Report Text: CESA 280403Z AUTO 31019KT 8SM -RA SCT013 03/M00 A2987 RMK PK WND 32025/// T00271001 WSI/SWOB
Loading
Personal Weather Stations






























Interactive Weather Map New forecast layout! Learn more

10-Day Weather Forecast

Advertisements
Track Severe Weather on mobile